Missouri Valley, Iowa
Current Conditions -  °F | °C
As of 11:15 AM on Friday 24 Oct 2014 (Local Time) from KBTA Reporting Station
Scattered Clouds Scattered Clouds  
Wind Chill: 66°   Ceiling: Unl
Heat Index: 66°   Visibility: 7mi
Dew Point: 60°   Wind: 10mph
Humidity: 80%   Direction: 230°SW
Pressure: 29.94"   Gusts: NA
Location:  41.56°N, 95.89°W
Report Text: KBTA 241615Z AUTO 23009KT 7SM SCT010 19/16 A2994 RMK AO2 T01910155
Loading
Personal Weather Stations






























Interactive Weather Map
Tropical Storm Tracking
New forecast layout! Learn more

10-Day Weather Forecast

Advertisements
Track Severe Weather on mobile